Sparta, Michigan
Current Conditions -  °F | °C
As of 2:53 AM on Sunday 23 Nov 2014 (Local Time) from KGRR Reporting Station
Overcast Overcast  
Wind Chill:   Ceiling: 1700
Heat Index:   Visibility: 8mi
Dew Point:   Wind: 10mph
Humidity: 89%   Direction: 190°S
Pressure: 29.87"   Gusts: NA
Location:  43.16°N, 85.71°W
Report Text: KGRR 230753Z AUTO 19009KT 8SM OVC017 08/06 A2987 RMK AO2 SLP119 T00780061
Loading
Personal Weather Stations






























Interactive Weather Map New forecast layout! Learn more

10-Day Weather Forecast

Advertisements
Track Severe Weather on mobile